Terminal Aerodrome Forecast
Issued by NWS

Home | Current Version | Previous Version | Text Only | Print | Product List | Glossary On
Versions: 1 2 3 4 5 6 7 8 9 10 11 12
000
FTUS45 KPSR 191722
TAFIPL
TAF
KIPL 191722Z 1918/2018 VRB04KT P6SM FEW250
     FM191900 15005KT P6SM FEW250
     FM200300 23008KT P6SM FEW250
     FM200900 17005KT P6SM FEW250=

USA.gov is the U.S. government's official web portal to all federal, state and local government web resources and services.